Leeton, Missouri
Current Conditions -  °F | °C
As of 11:58 PM on Tuesday 27 Jan 2015 (Local Time) from KSZL Reporting Station
Clear Clear  
Wind Chill: 32°   Ceiling: Unl
Heat Index: 38°   Visibility: 10mi
Dew Point: 31°   Wind: 9mph
Humidity: 74%   Direction: 130°SE
Pressure: 30.1"   Gusts: NA
Location:  38.58°N, 93.69°W
Report Text: KSZL 280558Z AUTO 13008KT 10SM CLR 04/M01 A3010 RMK AO2 SLPNO T00361006 10073 20028 57008 $
Loading
Personal Weather Stations






























Interactive Weather Map New forecast layout! Learn more

10-Day Weather Forecast

Advertisements
Track Severe Weather on mobile